Terminal Aerodrome Forecast
Issued by NWS

Home | Current Version | Previous Version | Text Only | Print | Product List | Glossary Off
Versions: 1 2 3 4 5 6 7 8 9 10 11 12 13 14 15 16 17 18 19 20

346
FTUS43 KGRB 261130
TAFAUW
TAF
KAUW 261130Z 2612/2712 05010KT P6SM OVC009
     FM261500 06010G18KT P6SM OVC010
     FM261800 07011G16KT P6SM OVC012
     FM262200 07009G15KT P6SM BKN020 BKN060
     FM270200 06007KT P6SM SCT060=

USA.gov is the U.S. government's official web portal to all federal, state and local government web resources and services.